Time;durP1;ratioP1;P1;durP2;ratioP2;P2;SDS_P1;SDS_P2;PMS_P1;PMS_P2;Temp;Humidity;BMP_temperature;BMP_pressure;BME280_temperature;BME280_humidity;BME280_pressure;Samples;Min_cycle;Max_cycle;Signal;HPM_P1;HPM_P2
2022/07/26 00:00:12;;;;;;;6.07;5.57;;;;;;;23.19;57.86;100383.09;5093518;28;20024;-29
2022/07/26 00:02:37;;;;;;;8.50;6.32;;;;;;;23.17;57.48;100382.31;5111447;28;20482;-28
2022/07/26 00:05:03;;;;;;;5.82;5.40;;;;;;;23.15;57.82;100387.81;5093460;28;20058;-29
2022/07/26 00:07:29;;;;;;;7.38;6.53;;;;;;;23.11;57.42;100390.81;5111533;28;20027;-28
2022/07/26 00:09:54;;;;;;;8.98;6.72;;;;;;;23.10;57.95;100392.63;5111583;28;20110;-29
2022/07/26 00:12:19;;;;;;;6.93;6.22;;;;;;;23.07;57.93;100384.75;5111541;28;20051;-29
2022/07/26 00:14:45;;;;;;;9.73;7.18;;;;;;;23.03;58.04;100385.91;5093050;28;20031;-29
2022/07/26 00:17:10;;;;;;;7.53;6.55;;;;;;;23.01;58.09;100377.13;5111647;28;20031;-28
2022/07/26 00:19:36;;;;;;;7.97;7.18;;;;;;;22.98;58.14;100377.31;5111586;28;20031;-29
2022/07/26 00:24:45;;;;;;;8.38;7.68;;;;;;;22.93;58.31;100373.09;5111259;28;20039;-29
2022/07/26 00:27:10;;;;;;;7.70;6.90;;;;;;;22.91;58.36;100368.78;5111237;28;20053;-29
2022/07/26 00:29:36;;;;;;;7.68;7.05;;;;;;;22.90;58.72;100361.66;5108948;28;20028;-29
2022/07/26 00:32:01;;;;;;;9.48;8.05;;;;;;;22.87;58.80;100367.28;5100644;28;20479;-29
2022/07/26 00:34:26;;;;;;;9.07;7.25;;;;;;;22.86;58.82;100369.09;5101792;28;20023;-28
2022/07/26 00:36:52;;;;;;;9.85;7.78;;;;;;;22.87;58.97;100373.50;5113678;28;20103;-28
2022/07/26 00:39:17;;;;;;;9.20;8.23;;;;;;;22.84;59.18;100371.00;5108045;28;20024;-29
2022/07/26 00:41:42;;;;;;;8.77;7.93;;;;;;;22.86;58.94;100381.66;5081917;28;20032;-29
2022/07/26 00:44:08;;;;;;;8.35;7.65;;;;;;;22.83;58.92;100381.88;5106339;28;20347;-28
2022/07/26 00:46:33;;;;;;;8.18;7.47;;;;;;;22.80;59.18;100366.78;5114993;28;20024;-29
2022/07/26 00:48:58;;;;;;;11.55;8.10;;;;;;;22.78;58.87;100374.13;5079947;28;20046;-28
2022/07/26 00:51:24;;;;;;;8.60;7.90;;;;;;;22.77;58.89;100377.78;5096899;28;20094;-29
2022/07/26 00:53:49;;;;;;;8.57;7.78;;;;;;;22.76;58.67;100376.03;5114626;28;20030;-29
2022/07/26 00:56:15;;;;;;;8.00;7.30;;;;;;;22.74;58.94;100372.59;5096348;28;20401;-29
2022/07/26 00:58:41;;;;;;;8.73;7.93;;;;;;;22.71;58.74;100383.53;5114895;28;20043;-29
2022/07/26 01:01:07;;;;;;;9.35;8.32;;;;;;;22.73;59.13;100384.28;5114879;28;20030;-28
2022/07/26 01:03:33;;;;;;;8.50;7.65;;;;;;;22.70;58.78;100381.81;5114524;28;20412;-29
2022/07/26 01:05:58;;;;;;;9.10;8.30;;;;;;;22.69;58.93;100383.63;5096736;28;20020;-28
2022/07/26 01:08:24;;;;;;;8.40;7.65;;;;;;;22.66;58.66;100391.91;5115062;28;20034;-29
2022/07/26 01:10:50;;;;;;;8.63;7.82;;;;;;;22.64;58.66;100386.63;5114487;28;20023;-29
2022/07/26 01:13:20;;;;;;;8.73;7.88;;;;;;;22.63;59.06;100397.47;5096079;28;20027;-29
2022/07/26 01:15:45;;;;;;;8.63;7.88;;;;;;;22.59;59.19;100390.56;5114827;28;20084;-29
2022/07/26 01:18:10;;;;;;;12.35;8.10;;;;;;;22.58;58.99;100389.72;5114128;28;20405;-28
2022/07/26 01:20:36;;;;;;;8.52;7.75;;;;;;;22.55;59.09;100392.56;5114237;28;20118;-29
2022/07/26 01:23:01;;;;;;;8.77;7.97;;;;;;;22.54;59.01;100380.94;5113953;28;20030;-29
2022/07/26 01:25:28;;;;;;;8.10;7.30;;;;;;;22.52;59.46;100384.69;5114483;28;20023;-29
2022/07/26 01:27:54;;;;;;;8.25;7.38;;;;;;;22.50;58.86;100386.59;5095773;28;20027;-28
2022/07/26 01:30:19;;;;;;;8.05;7.30;;;;;;;22.47;59.48;100386.84;5095972;28;20493;-29
2022/07/26 01:32:45;;;;;;;8.07;6.85;;;;;;;22.43;59.28;100387.03;5113903;28;20027;-29
2022/07/26 01:35:10;;;;;;;8.55;7.75;;;;;;;22.44;59.43;100393.25;5114308;28;20024;-29
2022/07/26 01:37:35;;;;;;;8.18;7.15;;;;;;;22.41;59.36;100399.69;5113850;28;20179;-28
2022/07/26 01:40:02;;;;;;;8.23;7.45;;;;;;;22.40;59.47;100392.59;5114045;28;20489;-29
2022/07/26 01:42:27;;;;;;;9.25;8.15;;;;;;;22.39;59.55;100395.38;5113953;28;20102;-29
2022/07/26 01:44:53;;;;;;;8.10;6.55;;;;;;;22.37;59.53;100400.00;5113700;28;20115;-29
2022/07/26 01:47:18;;;;;;;8.63;7.55;;;;;;;22.32;59.21;100400.28;5112862;28;20023;-29
2022/07/26 01:49:43;;;;;;;9.70;7.88;;;;;;;22.32;59.80;100405.66;5113811;28;20022;-28
2022/07/26 01:52:08;;;;;;;7.65;6.93;;;;;;;22.27;59.18;100407.75;5113443;28;20066;-29
2022/07/26 01:54:34;;;;;;;9.93;7.60;;;;;;;22.24;58.97;100405.28;5113552;28;20426;-29
2022/07/26 01:56:59;;;;;;;9.00;6.43;;;;;;;22.18;59.63;100403.84;5113767;28;20036;-29
2022/07/26 01:59:25;;;;;;;7.65;6.88;;;;;;;22.15;59.53;100402.19;5095474;28;20031;-29
2022/07/26 02:01:50;;;;;;;7.80;7.10;;;;;;;22.13;59.54;100404.09;5113990;28;20497;-28
2022/07/26 02:06:59;;;;;;;7.13;6.50;;;;;;;22.04;59.63;100396.66;5113933;28;20100;-29
2022/07/26 02:09:25;;;;;;;7.00;6.38;;;;;;;22.01;59.97;100396.81;5113810;28;20482;-29
2022/07/26 02:11:50;;;;;;;7.63;6.93;;;;;;;22.00;59.72;100389.69;5113638;28;20019;-29
2022/07/26 02:14:15;;;;;;;8.20;6.90;;;;;;;21.94;59.72;100400.84;5113436;28;20038;-29
2022/07/26 02:16:41;;;;;;;7.20;6.43;;;;;;;21.90;59.63;100401.03;5113071;28;20042;-29
2022/07/26 02:19:06;;;;;;;10.00;6.47;;;;;;;21.86;59.93;100399.50;5094698;28;20027;-29
2022/07/26 02:21:31;;;;;;;8.25;7.05;;;;;;;21.86;59.69;100403.97;5113001;28;20027;-29
2022/07/26 02:23:57;;;;;;;7.40;6.40;;;;;;;21.79;59.46;100401.69;5113043;28;20145;-29
2022/07/26 02:26:22;;;;;;;7.97;6.45;;;;;;;21.75;59.86;100397.47;5095120;28;20102;-29
2022/07/26 02:28:47;;;;;;;6.72;5.82;;;;;;;21.73;59.91;100398.47;5113030;28;20682;-29
2022/07/26 02:31:13;;;;;;;6.75;6.15;;;;;;;21.69;60.22;100404.97;5113356;28;20027;-28
2022/07/26 02:33:38;;;;;;;6.85;6.25;;;;;;;21.62;60.09;100405.38;5112645;28;20024;-28
2022/07/26 02:36:04;;;;;;;6.72;6.15;;;;;;;21.58;60.18;100405.63;5094397;28;20495;-29
2022/07/26 02:38:29;;;;;;;6.50;5.88;;;;;;;21.55;60.13;100395.97;5112907;28;20027;-29
2022/07/26 02:40:54;;;;;;;6.20;5.60;;;;;;;21.50;59.98;100400.72;5112953;28;20032;-29
2022/07/26 02:43:20;;;;;;;6.10;5.60;;;;;;;21.48;59.85;100397.28;5112554;28;20023;-29
2022/07/26 02:45:45;;;;;;;7.97;5.70;;;;;;;21.41;59.85;100386.91;5112875;28;20027;-28
2022/07/26 02:48:11;;;;;;;7.03;5.43;;;;;;;21.34;59.94;100398.94;5112556;28;20034;-29
2022/07/26 02:50:36;;;;;;;6.65;5.63;;;;;;;21.32;60.01;100390.13;5112435;28;20386;-28
2022/07/26 02:53:01;;;;;;;6.25;4.70;;;;;;;21.27;59.90;100403.81;5094242;28;20026;-29
2022/07/26 02:55:27;;;;;;;5.50;5.00;;;;;;;21.24;59.97;100408.50;5112831;28;20024;-28
2022/07/26 02:57:53;;;;;;;5.85;5.35;;;;;;;21.19;59.82;100405.22;5112164;28;20024;-29
2022/07/26 03:00:21;;;;;;;5.45;4.95;;;;;;;21.10;59.78;100402.13;5112702;28;20024;-29
2022/07/26 03:02:48;;;;;;;7.28;5.20;;;;;;;21.11;59.67;100409.19;5112128;28;20469;-28
2022/07/26 03:05:13;;;;;;;7.25;4.78;;;;;;;21.06;59.54;100400.56;5112599;28;20107;-28
2022/07/26 03:07:39;;;;;;;7.25;5.35;;;;;;;21.00;59.40;100404.47;5112178;28;20043;-29
2022/07/26 03:10:05;;;;;;;8.48;5.35;;;;;;;20.98;59.29;100413.56;5093999;28;20027;-28
2022/07/26 03:12:31;;;;;;;4.85;4.43;;;;;;;20.88;59.40;100419.41;5112333;28;20026;-29
2022/07/26 03:14:56;;;;;;;6.43;4.55;;;;;;;20.77;59.40;100427.16;5112184;28;20028;-29
2022/07/26 03:17:21;;;;;;;7.18;4.90;;;;;;;20.74;59.28;100430.88;5111999;28;20351;-29
2022/07/26 03:19:47;;;;;;;9.73;5.40;;;;;;;20.67;59.48;100432.19;5112111;28;20027;-29
2022/07/26 03:22:12;;;;;;;7.25;5.05;;;;;;;20.66;59.40;100437.63;5112173;28;20111;-29
2022/07/26 03:24:38;;;;;;;8.02;5.00;;;;;;;20.59;59.46;100440.66;5111760;28;20041;-29
2022/07/26 03:27:03;;;;;;;7.28;4.55;;;;;;;20.51;59.67;100437.53;5093586;28;20024;-29
2022/07/26 03:29:29;;;;;;;6.50;4.28;;;;;;;20.47;59.77;100431.47;5093838;28;20028;-29
2022/07/26 03:31:54;;;;;;;6.82;4.40;;;;;;;20.42;59.95;100428.19;5112033;28;20023;-29
2022/07/26 03:34:19;;;;;;;5.82;4.28;;;;;;;20.36;59.68;100423.16;5111406;28;20028;-29
2022/07/26 03:36:45;;;;;;;4.95;4.45;;;;;;;20.32;59.90;100427.84;5111939;28;20027;-29
2022/07/26 03:39:10;;;;;;;5.53;4.07;;;;;;;20.32;59.83;100429.63;5112014;28;20031;-29
2022/07/26 03:41:36;;;;;;;4.55;4.15;;;;;;;20.28;59.62;100431.63;5093650;28;20020;-29
2022/07/26 03:44:01;;;;;;;4.57;4.10;;;;;;;20.24;59.67;100424.72;5093486;28;20024;-29
2022/07/26 03:46:26;;;;;;;7.72;4.75;;;;;;;20.20;59.67;100424.00;5111999;28;20020;-29
2022/07/26 03:48:52;;;;;;;4.03;3.63;;;;;;;20.15;59.86;100419.84;5111584;28;20486;-29
2022/07/26 03:51:17;;;;;;;4.55;3.85;;;;;;;20.19;59.84;100421.41;5112053;28;20051;-29
2022/07/26 03:53:42;;;;;;;8.50;4.10;;;;;;;20.06;59.69;100414.03;5109509;28;20020;-29
2022/07/26 03:58:52;;;;;;;4.45;3.85;;;;;;;20.03;59.93;100416.88;5111902;28;20030;-29
2022/07/26 04:01:17;;;;;;;4.80;4.00;;;;;;;19.95;59.89;100427.97;5111470;28;20028;-29
2022/07/26 04:03:42;;;;;;;5.07;3.97;;;;;;;19.91;59.73;100421.00;5111535;28;20031;-29
2022/07/26 04:06:09;;;;;;;4.53;3.80;;;;;;;19.90;60.05;100421.97;5111609;28;20498;-29
2022/07/26 04:08:34;;;;;;;5.10;4.10;;;;;;;19.90;60.04;100421.13;5093436;28;20019;-29
2022/07/26 04:10:59;;;;;;;4.13;3.58;;;;;;;19.85;59.75;100429.38;5113427;28;20463;-29
2022/07/26 04:13:25;;;;;;;5.25;4.60;;;;;;;19.80;60.21;100440.31;5115465;28;20035;-29
2022/07/26 04:15:50;;;;;;;4.90;3.72;;;;;;;19.79;59.93;100443.94;5115403;28;20501;-28
2022/07/26 04:18:15;;;;;;;5.15;3.80;;;;;;;19.75;59.95;100437.03;5115563;28;20185;-28
2022/07/26 04:20:41;;;;;;;7.35;4.05;;;;;;;19.73;59.96;100433.53;5115549;28;20062;-29
2022/07/26 04:23:07;;;;;;;6.90;3.97;;;;;;;19.70;60.17;100437.25;5115174;28;20020;-29
2022/07/26 04:25:33;;;;;;;5.75;3.88;;;;;;;19.72;60.18;100434.50;5097286;28;20028;-29
2022/07/26 04:27:59;;;;;;;8.88;3.42;;;;;;;19.64;59.96;100436.69;5097278;28;20027;-29
2022/07/26 04:30:24;;;;;;;5.72;3.85;;;;;;;19.55;60.13;100432.69;5115253;28;20030;-28
2022/07/26 04:32:50;;;;;;;6.10;3.47;;;;;;;19.54;60.44;100437.16;5096564;28;20020;-28
2022/07/26 04:35:15;;;;;;;5.05;3.83;;;;;;;19.57;60.32;100428.13;5115556;28;20409;-29
2022/07/26 04:37:41;;;;;;;6.65;3.85;;;;;;;19.52;60.59;100439.06;5115044;28;20024;-28
2022/07/26 04:40:08;;;;;;;9.45;3.72;;;;;;;19.48;60.33;100437.50;5115610;28;20098;-29
2022/07/26 04:42:34;;;;;;;5.88;3.63;;;;;;;19.49;60.49;100440.09;5115538;28;20025;-28
2022/07/26 04:44:59;;;;;;;5.65;3.92;;;;;;;19.46;60.28;100442.03;5115130;28;20543;-28
2022/07/26 04:47:25;;;;;;;4.85;4.10;;;;;;;19.42;60.24;100437.78;5114874;28;20019;-29
2022/07/26 04:49:50;;;;;;;3.83;3.40;;;;;;;19.41;60.28;100441.41;5115199;28;20067;-28
2022/07/26 04:52:15;;;;;;;4.28;3.83;;;;;;;19.44;60.98;100449.28;5096468;28;20493;-27
2022/07/26 04:54:41;;;;;;;7.35;4.00;;;;;;;19.40;60.52;100453.06;5115074;28;20024;-29
2022/07/26 04:57:06;;;;;;;7.30;3.47;;;;;;;19.38;60.57;100447.78;5096468;28;20092;-28
2022/07/26 04:59:32;;;;;;;7.32;3.63;;;;;;;19.38;60.67;100452.25;5114794;28;20059;-29
2022/07/26 05:01:57;;;;;;;6.47;3.85;;;;;;;19.41;60.84;100441.41;5114578;28;20036;-29
2022/07/26 05:04:22;;;;;;;4.30;3.13;;;;;;;19.42;60.45;100441.34;5114369;28;20027;-28
2022/07/26 05:06:48;;;;;;;3.80;3.50;;;;;;;19.42;60.67;100448.47;5114633;28;20294;-29
2022/07/26 05:09:13;;;;;;;7.43;3.03;;;;;;;19.44;60.79;100452.81;5114548;28;20028;-28
2022/07/26 05:11:38;;;;;;;4.97;3.67;;;;;;;19.48;60.75;100448.19;5114456;28;20031;-28
2022/07/26 05:14:04;;;;;;;3.83;3.08;;;;;;;19.52;60.65;100452.44;5114107;28;20046;-28
2022/07/26 05:16:29;;;;;;;4.53;3.75;;;;;;;19.55;60.37;100456.75;5096215;28;20853;-28
2022/07/26 05:18:54;;;;;;;5.53;3.10;;;;;;;19.55;60.98;100462.97;5114182;28;20031;-29
2022/07/26 05:21:20;;;;;;;6.10;3.65;;;;;;;19.58;60.82;100460.13;5114275;28;20076;-28
2022/07/26 05:23:45;;;;;;;3.22;2.85;;;;;;;19.61;60.59;100459.97;5113933;28;20030;-29
2022/07/26 05:26:11;;;;;;;6.00;3.53;;;;;;;19.65;60.55;100467.84;5095930;28;20063;-28
2022/07/26 05:28:40;;;;;;;3.88;3.47;;;;;;;19.72;60.62;100474.63;5114099;28;20027;-28
2022/07/26 05:31:05;;;;;;;3.35;3.00;;;;;;;19.76;60.68;100462.81;5095949;28;20019;-29
2022/07/26 05:33:30;;;;;;;3.85;2.75;;;;;;;19.78;60.73;100462.75;5113958;28;20420;-28
2022/07/26 05:35:56;;;;;;;4.50;3.17;;;;;;;19.81;61.20;100471.47;5095856;28;20118;-28
2022/07/26 05:38:21;;;;;;;4.80;2.92;;;;;;;19.85;61.49;100467.69;5113936;28;20062;-28
2022/07/26 05:40:47;;;;;;;5.57;3.28;;;;;;;19.86;61.04;100469.44;5111623;28;20027;-28
2022/07/26 05:43:12;;;;;;;6.22;3.47;;;;;;;19.91;61.17;100471.00;5113073;28;20059;-29
2022/07/26 05:45:37;;;;;;;3.40;3.10;;;;;;;19.93;61.25;100463.75;5113630;28;20031;-29
2022/07/26 05:48:03;;;;;;;5.57;3.22;;;;;;;19.97;61.29;100468.88;5095351;28;20023;-29
2022/07/26 05:50:28;;;;;;;3.70;3.00;;;;;;;20.03;61.67;100473.06;5113686;28;20020;-29
2022/07/26 05:52:54;;;;;;;5.63;3.13;;;;;;;20.05;61.90;100475.66;5113711;28;20042;-28
2022/07/26 05:55:19;;;;;;;6.28;3.85;;;;;;;20.06;62.28;100474.72;5095056;28;20027;-29
2022/07/26 05:57:46;;;;;;;4.38;3.00;;;;;;;20.09;62.04;100475.44;5113642;28;20015;-29
2022/07/26 06:00:12;;;;;;;5.53;3.20;;;;;;;20.12;61.74;100471.72;5113575;28;20019;-29
2022/07/26 06:02:37;;;;;;;3.72;2.75;;;;;;;20.12;61.47;100477.97;5113407;28;20022;-29
2022/07/26 06:05:03;;;;;;;6.78;2.88;;;;;;;20.10;61.46;100477.16;5113798;28;20030;-28
2022/07/26 06:07:28;;;;;;;4.07;2.63;;;;;;;20.10;61.60;100481.63;5095351;28;20031;-29
2022/07/26 06:09:54;;;;;;;7.22;2.85;;;;;;;20.15;61.28;100484.97;5113742;28;20020;-29
2022/07/26 06:12:19;;;;;;;4.75;2.58;;;;;;;20.18;61.11;100483.94;5113480;28;20022;-29
2022/07/26 06:14:44;;;;;;;8.82;2.60;;;;;;;20.23;61.11;100489.91;5112867;28;20127;-29
2022/07/26 06:17:10;;;;;;;5.22;2.83;;;;;;;20.26;61.03;100492.41;5113256;28;20383;-28
2022/07/26 06:19:35;;;;;;;7.65;2.83;;;;;;;20.30;61.11;100491.31;5094952;28;20038;-29
2022/07/26 06:22:01;;;;;;;3.90;2.78;;;;;;;20.31;60.87;100494.84;5112964;28;20030;-28
2022/07/26 06:24:26;;;;;;;4.03;2.80;;;;;;;20.33;60.95;100496.50;5112608;28;20024;-29
2022/07/26 06:26:54;;;;;;;5.22;2.75;;;;;;;20.36;60.91;100491.00;5112619;28;20023;-29
2022/07/26 06:29:19;;;;;;;4.32;2.85;;;;;;;20.44;60.77;100489.72;5112656;28;20073;-29
2022/07/26 06:31:45;;;;;;;5.80;3.10;;;;;;;20.46;60.56;100495.84;5112728;28;20031;-28
2022/07/26 06:34:10;;;;;;;4.97;2.90;;;;;;;20.52;60.82;100490.16;5112008;28;20062;-29
2022/07/26 06:36:35;;;;;;;3.13;2.63;;;;;;;20.56;61.34;100491.72;5094342;28;20367;-29
2022/07/26 06:39:01;;;;;;;5.85;2.78;;;;;;;20.61;60.93;100488.81;5112696;28;20024;-29
2022/07/26 06:41:26;;;;;;;4.10;3.10;;;;;;;20.66;61.39;100488.53;5112911;28;20440;-29
2022/07/26 06:43:51;;;;;;;8.45;2.97;;;;;;;20.73;60.99;100489.94;5112053;28;20032;-29
2022/07/26 06:46:19;;;;;;;4.50;3.08;;;;;;;20.79;60.86;100494.97;5112323;28;20015;-29
2022/07/26 06:48:44;;;;;;;7.38;2.92;;;;;;;20.86;60.68;100495.47;5112664;28;20489;-29
2022/07/26 06:51:10;;;;;;;4.07;2.63;;;;;;;20.92;60.40;100494.31;5112712;28;20102;-29
2022/07/26 06:53:35;;;;;;;4.95;2.83;;;;;;;20.96;60.68;100495.84;5094076;28;20023;-29
2022/07/26 06:56:01;;;;;;;5.75;2.60;;;;;;;21.04;60.30;100507.00;5112480;28;20111;-28
2022/07/26 06:58:26;;;;;;;4.82;2.88;;;;;;;21.11;60.05;100492.31;5111808;28;20024;-28
2022/07/26 07:00:52;;;;;;;6.10;2.85;;;;;;;21.21;59.95;100499.84;5112320;28;20030;-29
2022/07/26 07:03:17;;;;;;;3.10;2.47;;;;;;;21.27;60.00;100504.84;5112062;28;20429;-29
2022/07/26 07:05:42;;;;;;;3.03;2.33;;;;;;;21.30;59.94;100502.00;5112317;28;20026;-29
2022/07/26 07:08:08;;;;;;;6.70;2.38;;;;;;;21.36;59.77;100493.59;5112418;28;20591;-29
2022/07/26 07:10:33;;;;;;;4.15;2.72;;;;;;;21.43;59.68;100499.47;5093785;28;20405;-29
2022/07/26 07:12:59;;;;;;;5.00;2.78;;;;;;;21.48;59.52;100496.53;5111668;28;20031;-29
2022/07/26 07:15:24;;;;;;;6.43;2.92;;;;;;;21.56;59.31;100490.72;5093811;28;20106;-28
2022/07/26 07:17:51;;;;;;;3.60;2.80;;;;;;;21.71;59.15;100507.75;5111770;28;20080;-29
2022/07/26 07:20:16;;;;;;;3.53;2.50;;;;;;;21.83;58.80;100507.03;5112370;28;20042;-29
2022/07/26 07:22:41;;;;;;;4.68;2.67;;;;;;;21.91;58.39;100506.59;5111796;28;20024;-29
2022/07/26 07:25:07;;;;;;;2.63;2.22;;;;;;;22.02;58.56;100506.81;5112103;28;20058;-28
2022/07/26 07:27:32;;;;;;;4.13;2.53;;;;;;;22.17;58.13;100502.31;5111739;28;20041;-29
2022/07/26 07:29:58;;;;;;;4.15;2.70;;;;;;;22.28;57.82;100512.41;5111915;28;20023;-29
2022/07/26 07:32:23;;;;;;;3.85;3.00;;;;;;;22.40;57.46;100515.28;5112004;28;20026;-29
2022/07/26 07:34:49;;;;;;;6.68;3.17;;;;;;;22.50;57.05;100518.28;5093500;28;20039;-29
2022/07/26 07:37:15;;;;;;;6.53;2.53;;;;;;;22.58;56.99;100513.34;5111561;28;20024;-28
2022/07/26 07:39:41;;;;;;;2.83;2.30;;;;;;;22.63;56.81;100516.59;5111986;28;20077;-29
2022/07/26 07:42:06;;;;;;;2.55;2.25;;;;;;;22.73;56.67;100505.25;5111303;28;20028;-29
2022/07/26 07:44:31;;;;;;;4.25;2.38;;;;;;;22.82;56.77;100512.75;5111787;28;20047;-29
2022/07/26 07:46:57;;;;;;;4.13;2.95;;;;;;;22.90;56.35;100513.13;5097305;28;20031;-29
2022/07/26 07:49:22;;;;;;;5.63;2.85;;;;;;;23.02;56.05;100502.53;5116576;28;20063;-28
2022/07/26 07:51:48;;;;;;;6.22;2.97;;;;;;;23.09;55.99;100501.16;5115973;28;20106;-29
2022/07/26 07:54:14;;;;;;;4.40;2.58;;;;;;;23.22;55.32;100503.06;5097385;28;20279;-29
2022/07/26 07:56:41;;;;;;;6.47;2.53;;;;;;;23.30;55.47;100508.78;5115409;28;20447;-29
2022/07/26 07:59:06;;;;;;;3.88;2.88;;;;;;;23.34;55.31;100504.94;5097617;28;20502;-29
2022/07/26 08:01:32;;;;;;;3.40;3.05;;;;;;;23.50;54.93;100502.13;5115733;28;20066;-29
2022/07/26 08:03:57;;;;;;;4.25;2.60;;;;;;;23.61;54.34;100498.72;5115494;28;20181;-29
2022/07/26 08:06:22;;;;;;;7.00;2.90;;;;;;;23.68;54.38;100501.88;5115982;28;20027;-29
2022/07/26 08:08:48;;;;;;;3.85;2.70;;;;;;;23.79;53.73;100503.81;5115927;28;20027;-29
2022/07/26 08:11:13;;;;;;;3.80;2.90;;;;;;;23.90;53.42;100503.94;5115490;28;20483;-29
2022/07/26 08:13:38;;;;;;;5.45;2.78;;;;;;;23.94;54.05;100508.16;5115623;28;20386;-29
2022/07/26 08:16:04;;;;;;;3.75;2.90;;;;;;;24.08;53.61;100514.44;5115524;28;20530;-29
2022/07/26 08:18:29;;;;;;;4.45;2.95;;;;;;;24.15;53.11;100502.31;5115302;28;20031;-29
2022/07/26 08:20:55;;;;;;;4.78;2.42;;;;;;;24.26;53.24;100511.44;5115845;28;20182;-29
2022/07/26 08:23:20;;;;;;;4.88;2.97;;;;;;;24.39;52.79;100506.06;5096829;28;20023;-29
2022/07/26 08:25:46;;;;;;;3.50;2.60;;;;;;;24.44;52.84;100509.31;5115224;28;20023;-29
2022/07/26 08:28:12;;;;;;;4.32;2.60;;;;;;;24.55;53.04;100511.25;5115407;28;20100;-29
2022/07/26 08:30:37;;;;;;;3.00;2.70;;;;;;;24.59;53.25;100510.94;5115368;28;20025;-29
2022/07/26 08:33:02;;;;;;;5.10;2.47;;;;;;;24.69;53.23;100505.72;5115098;28;20111;-28
2022/07/26 08:35:28;;;;;;;4.18;2.70;;;;;;;24.78;52.83;100522.22;5115428;28;20024;-28
2022/07/26 08:37:54;;;;;;;2.42;2.15;;;;;;;24.86;52.67;100525.25;5114950;28;20020;-29
2022/07/26 08:40:19;;;;;;;2.67;2.47;;;;;;;24.92;53.06;100510.47;5114941;28;20027;-29
2022/07/26 08:42:49;;;;;;;2.58;2.38;;;;;;;25.03;53.24;100515.06;5114646;28;20543;-29
2022/07/26 08:45:23;;;;;;;4.30;2.53;;;;;;;25.16;52.75;100509.63;5115080;28;20413;-29
2022/07/26 08:47:49;;;;;;;2.92;2.50;;;;;;;25.30;52.20;100511.28;5115189;28;20373;-29
2022/07/26 08:50:14;;;;;;;5.15;3.10;;;;;;;25.41;51.95;100515.91;5114864;28;20463;-29
2022/07/26 08:52:40;;;;;;;4.10;2.42;;;;;;;25.50;51.31;100510.69;5096415;28;20016;-29
2022/07/26 08:55:06;;;;;;;2.72;1.75;;;;;;;25.60;51.02;100512.72;5096455;28;20036;-28
2022/07/26 08:57:31;;;;;;;4.38;2.45;;;;;;;25.73;49.86;100513.50;5114443;28;20459;-28
2022/07/26 09:00:18;;;;;;;2.47;2.25;;;;;;;25.75;50.19;100513.41;5114537;28;20023;-29
2022/07/26 09:02:44;;;;;;;2.47;2.28;;;;;;;25.80;50.00;100515.75;5114486;28;20088;-29
2022/07/26 09:05:10;;;;;;;4.75;2.05;;;;;;;25.80;50.57;100507.66;5114628;28;20024;-28
2022/07/26 09:07:38;;;;;;;3.63;1.90;;;;;;;25.95;50.41;100519.09;5114296;28;20491;-29
2022/07/26 09:10:09;;;;;;;1.98;1.83;;;;;;;26.03;50.06;100518.50;5114584;28;20059;-28
2022/07/26 09:12:35;;;;;;;2.33;2.00;;;;;;;26.07;50.97;100515.44;5114525;28;20026;-28
2022/07/26 09:15:01;;;;;;;2.65;2.03;;;;;;;26.12;50.53;100521.38;5114165;28;20028;-29
2022/07/26 09:17:38;;;;;;;2.20;2.00;;;;;;;26.19;50.07;100524.44;5114202;28;20398;-28
2022/07/26 09:20:12;;;;;;;1.88;1.77;;;;;;;26.20;49.41;100512.66;5096320;28;20024;-29
2022/07/26 09:22:54;;;;;;;2.80;1.88;;;;;;;26.28;49.52;100505.81;5095650;28;20031;-28
2022/07/26 09:25:21;;;;;;;2.00;1.90;;;;;;;26.34;48.93;100513.47;5114469;28;20031;-29
2022/07/26 09:27:46;;;;;;;2.22;1.92;;;;;;;26.41;49.20;100514.69;5113991;28;20391;-29
2022/07/26 09:30:12;;;;;;;4.82;2.08;;;;;;;26.49;49.30;100517.66;5114531;28;20027;-29
2022/07/26 09:32:37;;;;;;;1.90;1.80;;;;;;;26.57;49.09;100510.78;5114088;28;20474;-28
2022/07/26 09:35:14;;;;;;;3.42;2.10;;;;;;;26.65;47.66;100519.13;5095718;28;20019;-29
2022/07/26 09:37:45;;;;;;;2.17;2.08;;;;;;;26.69;46.71;100520.59;5113857;28;20031;-29
2022/07/26 09:40:12;;;;;;;2.67;2.47;;;;;;;26.73;46.75;100515.78;5096351;28;20024;-29
2022/07/26 09:42:52;;;;;;;2.00;1.85;;;;;;;26.66;47.01;100512.72;5114028;28;20416;-28
2022/07/26 09:45:17;;;;;;;2.65;2.45;;;;;;;26.75;46.95;100519.25;5095548;28;20474;-29
2022/07/26 09:47:43;;;;;;;3.53;2.53;;;;;;;26.81;46.52;100529.53;5095394;28;20031;-29
2022/07/26 09:50:16;;;;;;;2.40;2.00;;;;;;;26.87;46.39;100530.91;5113944;28;20024;-29
2022/07/26 09:53:06;;;;;;;3.78;2.10;;;;;;;26.94;46.16;100523.16;5113213;28;20063;-28
2022/07/26 09:55:33;;;;;;;2.60;2.10;;;;;;;27.01;46.14;100527.97;5095688;28;20031;-29
2022/07/26 09:58:02;;;;;;;2.70;2.60;;;;;;;27.08;45.26;100533.75;5113703;28;20289;-29
2022/07/26 10:00:29;;;;;;;3.15;2.40;;;;;;;27.17;45.13;100534.81;5113784;28;20023;-29
2022/07/26 10:02:54;;;;;;;2.50;2.30;;;;;;;27.25;44.28;100537.78;5095204;28;20118;-29
2022/07/26 10:05:20;;;;;;;2.38;2.17;;;;;;;27.28;44.20;100533.97;5113444;28;20550;-29
2022/07/26 10:07:47;;;;;;;2.40;2.20;;;;;;;27.28;44.28;100539.38;5112772;28;20031;-29
2022/07/26 10:10:26;;;;;;;2.88;2.00;;;;;;;27.21;44.07;100536.28;5095221;28;20020;-29
2022/07/26 10:12:52;;;;;;;2.40;2.20;;;;;;;27.20;44.97;100540.00;5094793;28;20018;-29
2022/07/26 10:15:46;;;;;;;2.65;2.38;;;;;;;27.21;45.25;100541.72;5113232;28;20023;-29
2022/07/26 10:18:37;;;;;;;2.50;2.30;;;;;;;27.23;45.00;100539.75;5092639;28;20036;-29
2022/07/26 10:21:29;;;;;;;2.95;2.53;;;;;;;27.25;45.69;100540.50;5092907;28;20023;-29
2022/07/26 10:23:59;;;;;;;2.17;2.08;;;;;;;27.28;45.29;100542.91;5070741;28;20036;-29
2022/07/26 10:26:30;;;;;;;;;;;;;;;27.29;45.60;100535.69;5103762;28;20027;-29
2022/07/26 10:29:15;;;;;;;2.97;2.28;;;;;;;27.36;44.90;100544.13;5092084;28;19912;-29
2022/07/26 10:32:03;;;;;;;2.55;2.45;;;;;;;27.40;44.90;100529.34;5090825;28;20028;-29
2022/07/26 10:34:31;;;;;;;3.25;2.58;;;;;;;27.49;44.73;100539.44;5078470;28;20032;-29
2022/07/26 10:37:02;;;;;;;4.28;2.22;;;;;;;27.60;44.27;100540.38;5100499;28;20023;-28
2022/07/26 10:39:27;;;;;;;3.63;2.90;;;;;;;27.64;44.73;100542.72;5094891;28;20066;-28
2022/07/26 10:42:00;;;;;;;2.90;2.55;;;;;;;27.68;44.06;100548.75;5077518;28;20114;-29
2022/07/26 10:44:27;;;;;;;2.80;2.60;;;;;;;27.71;43.66;100551.19;5112342;28;20016;-29
2022/07/26 10:47:08;;;;;;;2.67;2.47;;;;;;;27.72;43.67;100544.81;5112584;28;20057;-29
2022/07/26 10:49:56;;;;;;;2.92;2.60;;;;;;;27.77;43.11;100542.56;5112439;28;20055;-29
2022/07/26 10:52:29;;;;;;;3.25;2.88;;;;;;;27.85;42.95;100546.47;5094389;28;20019;-29
2022/07/26 10:54:57;;;;;;;3.40;2.85;;;;;;;27.81;43.01;100556.72;5112832;28;20047;-29
2022/07/26 10:57:29;;;;;;;3.33;3.03;;;;;;;27.71;42.46;100548.47;5112857;28;20029;-29
2022/07/26 10:59:56;;;;;;;3.10;2.90;;;;;;;27.72;43.29;100550.22;5095386;28;20110;-29
2022/07/26 11:02:25;;;;;;;2.85;2.65;;;;;;;27.73;43.25;100554.66;5112207;28;20054;-29
2022/07/26 11:04:58;;;;;;;5.60;3.00;;;;;;;27.82;44.25;100554.84;5112345;28;20034;-29
2022/07/26 11:07:23;;;;;;;4.40;2.95;;;;;;;27.85;44.03;100554.59;5112036;28;20027;-28
2022/07/26 11:10:02;;;;;;;3.10;2.90;;;;;;;27.89;43.27;100551.50;5094092;28;20045;-29
2022/07/26 11:12:27;;;;;;;3.78;3.47;;;;;;;27.93;43.46;100557.50;5112137;28;20382;-29
2022/07/26 11:14:53;;;;;;;3.67;3.38;;;;;;;27.85;42.79;100560.00;5112330;28;20024;-29
2022/07/26 11:17:29;;;;;;;3.05;2.85;;;;;;;27.76;43.26;100554.38;5093976;28;20020;-29
2022/07/26 11:19:55;;;;;;;3.38;3.03;;;;;;;27.73;43.66;100554.66;5094174;28;20031;-29
2022/07/26 11:22:21;;;;;;;3.13;2.83;;;;;;;27.73;43.86;100564.59;5093745;28;20081;-28
2022/07/26 11:24:46;;;;;;;4.32;3.00;;;;;;;27.63;43.39;100553.69;5093592;28;20039;-29
2022/07/26 11:27:12;;;;;;;3.78;3.42;;;;;;;27.60;44.12;100562.91;5093583;28;20467;-29
2022/07/26 11:29:38;;;;;;;3.13;2.90;;;;;;;27.54;43.99;100569.69;5112059;28;20063;-29